Time;durP1;ratioP1;P1;durP2;ratioP2;P2;SDS_P1;SDS_P2;PMS_P1;PMS_P2;Temp;Humidity;BMP_temperature;BMP_pressure;BME280_temperature;BME280_humidity;BME280_pressure;Samples;Min_cycle;Max_cycle;Signal;HPM_P1;HPM_P2
2022/08/02 00:00:29;;;;;;;1.70;1.60;;;26.50;49.70;;;;;;5045351;28;20041;-61
2022/08/02 00:02:57;;;;;;;1.45;1.38;;;26.50;49.80;;;;;;5043781;28;20122;-61
2022/08/02 00:05:24;;;;;;;1.48;1.42;;;26.50;49.80;;;;;;5045009;28;20065;-61
2022/08/02 00:07:51;;;;;;;1.38;1.35;;;26.50;49.80;;;;;;5043779;28;20062;-61
2022/08/02 00:10:18;;;;;;;1.63;1.60;;;26.50;49.80;;;;;;5043653;28;20576;-61
2022/08/02 00:12:45;;;;;;;1.55;1.45;;;26.50;49.80;;;;;;5045045;28;20186;-61
2022/08/02 00:15:12;;;;;;;1.42;1.33;;;26.50;49.90;;;;;;5045164;28;20110;-61
2022/08/02 00:17:43;;;;;;;1.25;1.25;;;26.50;49.90;;;;;;5040534;28;20444;-61
2022/08/02 00:20:45;;;;;;;1.67;1.57;;;26.50;49.90;;;;;;5044820;28;20051;-60
2022/08/02 00:23:12;;;;;;;1.65;1.55;;;26.50;49.90;;;;;;5044954;28;20045;-61
2022/08/02 00:25:39;;;;;;;1.52;1.50;;;26.40;49.80;;;;;;5045163;28;20049;-60
2022/08/02 00:28:22;;;;;;;1.60;1.50;;;26.40;49.80;;;;;;5045025;28;20424;-61
2022/08/02 00:30:54;;;;;;;1.38;1.35;;;26.40;49.90;;;;;;5044642;28;20041;-61
2022/08/02 00:33:22;;;;;;;1.38;1.27;;;26.40;49.90;;;;;;5044808;28;20545;-62
2022/08/02 00:36:09;;;;;;;1.38;1.38;;;26.40;49.90;;;;;;5044455;28;20514;-61
2022/08/02 00:38:36;;;;;;;2.00;1.90;;;26.50;50.00;;;;;;5044527;28;20084;-61
2022/08/02 00:41:03;;;;;;;1.88;1.77;;;26.40;50.00;;;;;;5044352;28;20045;-61
2022/08/02 00:43:30;;;;;;;1.67;1.50;;;26.40;50.00;;;;;;5045119;28;20049;-60
2022/08/02 00:45:57;;;;;;;1.55;1.45;;;26.40;50.00;;;;;;5045016;28;20499;-61
2022/08/02 00:48:29;;;;;;;1.80;1.70;;;26.40;50.00;;;;;;5043358;28;20049;-63
2022/08/02 00:50:58;;;;;;;1.55;1.45;;;26.40;50.10;;;;;;5041381;28;20155;-61
2022/08/02 00:53:25;;;;;;;1.20;1.20;;;26.40;50.00;;;;;;5044990;28;20103;-60
2022/08/02 00:55:52;;;;;;;1.80;1.70;;;26.40;50.10;;;;;;5044771;28;20075;-61
2022/08/02 00:58:20;;;;;;;1.67;1.55;;;26.40;50.10;;;;;;5044625;28;20307;-61
2022/08/02 01:00:47;;;;;;;1.80;1.70;;;26.40;50.10;;;;;;5044178;28;20505;-62
2022/08/02 01:03:14;;;;;;;1.30;1.30;;;26.30;50.10;;;;;;5044477;28;20373;-61
2022/08/02 01:05:43;;;;;;;1.52;1.50;;;26.40;50.70;;;;;;5044076;28;20513;-61
2022/08/02 01:08:30;;;;;;;1.63;1.63;;;26.30;50.10;;;;;;5048428;28;20059;-61
2022/08/02 01:10:58;;;;;;;1.60;1.50;;;26.30;50.10;;;;;;5047812;28;20044;-61
2022/08/02 01:13:26;;;;;;;1.63;1.52;;;26.30;50.10;;;;;;5048121;28;20675;-61
2022/08/02 01:16:14;;;;;;;2.65;2.10;;;26.30;50.20;;;;;;5048381;28;20081;-61
2022/08/02 01:18:46;;;;;;;2.15;1.55;;;26.40;50.30;;;;;;5047572;28;20045;-60
2022/08/02 01:21:31;;;;;;;2.15;1.60;;;26.30;50.20;;;;;;5043256;28;20124;-60
2022/08/02 01:24:17;;;;;;;2.00;1.90;;;26.30;50.20;;;;;;5047966;28;20080;-61
2022/08/02 01:27:19;;;;;;;1.73;1.58;;;26.30;50.20;;;;;;5047739;28;20114;-60
2022/08/02 01:29:55;;;;;;;1.55;1.45;;;26.30;50.20;;;;;;5047494;28;20049;-60
2022/08/02 01:32:32;;;;;;;1.75;1.73;;;26.30;50.30;;;;;;5047508;28;20715;-60
2022/08/02 01:35:10;;;;;;;1.40;1.35;;;26.30;50.30;;;;;;5047890;28;20296;-61
2022/08/02 01:38:00;;;;;;;1.40;1.30;;;26.30;50.30;;;;;;5047958;28;20110;-61
2022/08/02 01:40:32;;;;;;;1.33;1.33;;;26.30;50.30;;;;;;5047477;28;20049;-61
2022/08/02 01:43:01;;;;;;;1.30;1.30;;;26.30;50.30;;;;;;5047246;28;20049;-61
2022/08/02 01:45:33;;;;;;;1.48;1.40;;;26.20;50.20;;;;;;5047088;28;20136;-60
2022/08/02 01:48:01;;;;;;;1.20;1.20;;;26.30;50.30;;;;;;5047237;28;20083;-61
2022/08/02 01:50:33;;;;;;;1.60;1.50;;;26.30;50.30;;;;;;5047665;28;20041;-61
2022/08/02 01:53:06;;;;;;;1.55;1.27;;;26.30;50.30;;;;;;5042392;28;20049;-61
2022/08/02 01:55:41;;;;;;;2.25;1.73;;;26.30;50.40;;;;;;5046178;28;20571;-61
2022/08/02 01:58:31;;;;;;;1.73;1.63;;;26.30;50.30;;;;;;5047217;28;20079;-61
2022/08/02 02:00:59;;;;;;;1.60;1.50;;;26.30;50.30;;;;;;5047145;28;20049;-61
2022/08/02 02:03:30;;;;;;;1.27;1.27;;;26.30;50.30;;;;;;5047016;28;20076;-61
2022/08/02 02:06:02;;;;;;;1.55;1.45;;;26.30;50.40;;;;;;5047830;28;20045;-61
2022/08/02 02:08:42;;;;;;;1.35;1.35;;;26.30;50.40;;;;;;5047491;28;20103;-61
2022/08/02 02:11:09;;;;;;;;;;;26.30;50.40;;;;;;5047520;28;20697;-61
2022/08/02 02:13:59;;;;;;;1.25;1.25;;;26.30;50.40;;;;;;5046893;28;20007;-61
2022/08/02 02:16:27;;;;;;;2.92;1.40;;;26.20;50.30;;;;;;5046858;28;20049;-61
2022/08/02 02:18:54;;;;;;;1.35;1.35;;;26.20;50.30;;;;;;5046555;28;20049;-60
2022/08/02 02:21:22;;;;;;;1.40;1.40;;;26.20;50.60;;;;;;5046976;28;20083;-60
2022/08/02 02:23:49;;;;;;;1.33;1.23;;;26.20;50.40;;;;;;5041996;28;20501;-61
2022/08/02 02:26:18;;;;;;;1.95;1.85;;;26.20;50.40;;;;;;5047147;28;20049;-61
2022/08/02 02:28:58;;;;;;;;;;;26.20;50.40;;;;;;5046856;28;20056;-60
2022/08/02 02:31:26;;;;;;;1.55;1.45;;;26.20;50.40;;;;;;5046778;28;20339;-61
2022/08/02 02:34:01;;;;;;;1.55;1.45;;;26.20;50.40;;;;;;5045881;28;20481;-60
2022/08/02 02:36:29;;;;;;;1.27;1.27;;;26.20;50.40;;;;;;5045392;28;20395;-60
2022/08/02 02:39:02;;;;;;;1.60;1.50;;;26.20;50.40;;;;;;5046648;28;20421;-61
2022/08/02 02:41:29;;;;;;;1.67;1.60;;;26.20;50.50;;;;;;5045048;28;20072;-61
2022/08/02 02:44:01;;;;;;;1.75;1.65;;;26.20;50.40;;;;;;5046026;28;20324;-61
2022/08/02 02:46:30;;;;;;;2.53;1.50;;;26.20;50.40;;;;;;5046470;28;20084;-60
2022/08/02 02:48:57;;;;;;;1.77;1.67;;;26.10;50.40;;;;;;5046735;28;20406;-61
2022/08/02 02:51:25;;;;;;;2.80;1.65;;;26.20;50.60;;;;;;5046060;28;20053;-61
2022/08/02 02:53:53;;;;;;;1.50;1.40;;;26.20;50.60;;;;;;5046194;28;20086;-61
2022/08/02 02:56:42;;;;;;;3.00;1.73;;;26.10;50.50;;;;;;5041762;28;20079;-61
2022/08/02 02:59:11;;;;;;;1.38;1.38;;;26.20;50.70;;;;;;5046049;28;20102;-61
2022/08/02 03:01:39;;;;;;;1.73;1.63;;;26.20;50.70;;;;;;5046124;28;20492;-61
2022/08/02 03:04:27;;;;;;;1.67;1.58;;;26.10;50.60;;;;;;5046017;28;20045;-61
2022/08/02 03:07:15;;;;;;;1.92;1.38;;;26.10;50.60;;;;;;5046064;28;20049;-61
2022/08/02 03:09:42;;;;;;;2.70;1.52;;;26.10;50.70;;;;;;5045700;28;20510;-61
2022/08/02 03:12:13;;;;;;;1.30;1.20;;;26.20;50.70;;;;;;5046578;28;20390;-61
2022/08/02 03:14:46;;;;;;;2.58;1.60;;;26.10;50.70;;;;;;5045723;28;20045;-61
2022/08/02 03:17:15;;;;;;;3.60;1.85;;;26.20;50.80;;;;;;5045790;28;20068;-61
2022/08/02 03:19:43;;;;;;;1.30;1.13;;;26.20;50.80;;;;;;5045985;28;20122;-61
2022/08/02 03:22:10;;;;;;;1.65;1.55;;;26.20;50.90;;;;;;5046012;28;20175;-62
2022/08/02 03:24:38;;;;;;;6.97;1.80;;;26.10;50.80;;;;;;5045242;28;20049;-61
2022/08/02 03:27:05;;;;;;;1.48;1.42;;;26.20;50.90;;;;;;5041208;28;20559;-61
2022/08/02 03:29:33;;;;;;;4.88;1.67;;;26.10;50.90;;;;;;5043689;28;20175;-61
2022/08/02 03:32:01;;;;;;;1.75;1.65;;;26.20;51.00;;;;;;5042357;28;20348;-61
2022/08/02 03:34:28;;;;;;;1.90;1.80;;;26.20;50.90;;;;;;5043610;28;20131;-61
2022/08/02 03:36:57;;;;;;;1.63;1.50;;;26.20;50.90;;;;;;5044685;28;20044;-61
2022/08/02 03:39:25;;;;;;;1.60;1.50;;;26.20;50.90;;;;;;5045313;28;20049;-62
2022/08/02 03:41:54;;;;;;;1.63;1.52;;;26.10;50.80;;;;;;5044974;28;20124;-61
2022/08/02 03:44:23;;;;;;;2.03;1.50;;;26.20;50.90;;;;;;5045485;28;20049;-61
2022/08/02 03:46:51;;;;;;;2.17;1.30;;;26.20;50.90;;;;;;5045085;28;20045;-61
2022/08/02 03:49:19;;;;;;;2.17;1.60;;;26.20;50.90;;;;;;5037101;28;20433;-61
2022/08/02 03:51:47;;;;;;;1.67;1.58;;;26.20;50.90;;;;;;5043302;28;20053;-61
2022/08/02 03:54:16;;;;;;;1.35;1.30;;;26.20;50.90;;;;;;5027575;28;20498;-61
2022/08/02 03:56:44;;;;;;;3.00;1.50;;;26.20;51.50;;;;;;5036523;28;20052;-61
2022/08/02 03:59:13;;;;;;;1.70;1.60;;;26.20;50.90;;;;;;5038690;28;20333;-61
2022/08/02 04:01:41;;;;;;;2.15;1.75;;;26.20;50.90;;;;;;5038052;28;20049;-60
2022/08/02 04:04:08;;;;;;;2.90;1.70;;;26.20;50.90;;;;;;5030521;28;20054;-61
2022/08/02 04:06:36;;;;;;;3.90;1.73;;;26.30;50.90;;;;;;5025212;28;20173;-61
2022/08/02 04:09:08;;;;;;;2.70;2.03;;;26.30;50.90;;;;;;5025197;28;20353;-61
2022/08/02 04:11:36;;;;;;;1.52;1.40;;;26.30;50.90;;;;;;5027967;28;20049;-61
2022/08/02 04:14:07;;;;;;;1.83;1.70;;;26.30;50.80;;;;;;5041668;28;20158;-61
2022/08/02 04:16:47;;;;;;;1.67;1.58;;;26.30;50.80;;;;;;5043570;28;20049;-61
2022/08/02 04:19:19;;;;;;;2.20;1.75;;;26.40;50.80;;;;;;5032469;28;20037;-61
2022/08/02 04:21:50;;;;;;;3.15;1.77;;;26.40;50.80;;;;;;5024711;28;20572;-61
2022/08/02 04:24:26;;;;;;;2.90;1.60;;;26.40;50.70;;;;;;5024829;28;20384;-61
2022/08/02 04:26:55;;;;;;;2.22;1.45;;;26.40;50.60;;;;;;5025216;28;20096;-61
2022/08/02 04:29:28;;;;;;;2.00;1.67;;;26.40;50.60;;;;;;5020091;28;20532;-61
2022/08/02 04:31:56;;;;;;;2.15;1.90;;;26.50;50.70;;;;;;5023980;28;20045;-61
2022/08/02 04:34:23;;;;;;;1.45;1.42;;;26.50;50.70;;;;;;5024063;28;20120;-61
2022/08/02 04:36:51;;;;;;;1.40;1.40;;;26.50;50.60;;;;;;5024705;28;20529;-61
2022/08/02 04:39:18;;;;;;;1.73;1.63;;;26.50;50.50;;;;;;5023547;28;20045;-60
2022/08/02 04:41:46;;;;;;;1.63;1.55;;;26.50;50.40;;;;;;5033899;28;20107;-61
2022/08/02 04:44:14;;;;;;;2.35;1.42;;;26.50;50.40;;;;;;5048532;28;20049;-61
2022/08/02 04:46:43;;;;;;;1.50;1.40;;;26.60;50.30;;;;;;5047881;28;20142;-61
2022/08/02 04:49:10;;;;;;;1.92;1.65;;;26.60;50.30;;;;;;5048756;28;20541;-61
2022/08/02 04:51:39;;;;;;;2.83;1.80;;;26.60;50.20;;;;;;5043454;28;20083;-61
2022/08/02 04:54:08;;;;;;;1.88;1.75;;;26.70;50.10;;;;;;5035494;28;20144;-61
2022/08/02 04:56:37;;;;;;;2.05;1.70;;;26.70;50.10;;;;;;5028830;28;20053;-61
2022/08/02 04:59:05;;;;;;;2.00;1.90;;;26.80;50.00;;;;;;5028296;28;20403;-61
2022/08/02 05:01:34;;;;;;;3.05;1.50;;;26.80;49.90;;;;;;5024027;28;20069;-61
2022/08/02 05:04:02;;;;;;;3.55;2.17;;;26.90;49.80;;;;;;5028096;28;20493;-61
2022/08/02 05:06:29;;;;;;;2.88;1.70;;;26.90;49.70;;;;;;5028203;28;20074;-61
2022/08/02 05:08:57;;;;;;;2.40;1.90;;;26.90;49.60;;;;;;5028638;28;20041;-61
2022/08/02 05:11:24;;;;;;;1.65;1.60;;;26.80;49.80;;;;;;5028437;28;20408;-61
2022/08/02 05:14:04;;;;;;;2.35;1.95;;;26.70;50.00;;;;;;5036294;28;20209;-61
2022/08/02 05:16:31;;;;;;;3.28;2.28;;;26.50;50.30;;;;;;5033557;28;20549;-61
2022/08/02 05:19:00;;;;;;;2.10;2.00;;;26.40;50.60;;;;;;5049149;28;20099;-61
2022/08/02 05:21:30;;;;;;;1.80;1.70;;;26.10;51.10;;;;;;5034955;28;20037;-61
2022/08/02 05:23:57;;;;;;;3.17;2.13;;;25.90;51.10;;;;;;5035443;28;20053;-62
2022/08/02 05:26:24;;;;;;;2.58;2.08;;;25.60;50.70;;;;;;5037610;28;20328;-62
2022/08/02 05:28:51;;;;;;;2.28;2.17;;;25.30;50.20;;;;;;5041829;28;20071;-63
2022/08/02 05:31:19;;;;;;;2.63;2.42;;;24.90;49.90;;;;;;5041339;28;20478;-62
2022/08/02 05:33:46;;;;;;;1.83;1.73;;;24.60;50.00;;;;;;5032631;28;20088;-63
2022/08/02 05:36:13;;;;;;;5.25;2.50;;;24.20;49.70;;;;;;5043432;28;20170;-62
2022/08/02 05:38:41;;;;;;;2.22;2.13;;;23.80;49.50;;;;;;5044129;28;20048;-63
2022/08/02 05:41:17;;;;;;;3.92;2.13;;;23.50;49.50;;;;;;5029558;28;20053;-64
2022/08/02 05:43:45;;;;;;;6.00;2.75;;;23.20;50.10;;;;;;5035018;28;20056;-62
2022/08/02 05:46:13;;;;;;;3.35;2.47;;;22.80;50.10;;;;;;5041872;28;20046;-62
2022/08/02 05:48:40;;;;;;;3.25;2.85;;;22.60;50.40;;;;;;5039691;28;20053;-62
2022/08/02 05:51:15;;;;;;;2.60;2.40;;;22.30;51.30;;;;;;5040812;28;20099;-63
2022/08/02 05:53:51;;;;;;;5.03;2.55;;;22.10;51.00;;;;;;5041118;28;20049;-62
2022/08/02 05:56:30;;;;;;;3.15;2.85;;;21.90;51.70;;;;;;5042381;28;20072;-62
2022/08/02 05:59:12;;;;;;;3.07;2.87;;;21.70;52.20;;;;;;5034184;28;20127;-61
2022/08/02 06:01:41;;;;;;;2.90;2.70;;;21.60;52.80;;;;;;5040088;28;20289;-61
2022/08/02 06:04:23;;;;;;;3.13;2.83;;;21.50;53.40;;;;;;5036412;28;20045;-60
2022/08/02 06:06:55;;;;;;;3.90;2.85;;;21.40;54.30;;;;;;5042439;28;20048;-63
2022/08/02 06:09:25;;;;;;;4.15;2.92;;;21.30;54.20;;;;;;5041818;28;20053;-62
2022/08/02 06:11:57;;;;;;;4.68;3.17;;;21.30;55.30;;;;;;5040937;28;20405;-62
2022/08/02 06:14:40;;;;;;;3.67;3.30;;;21.30;55.50;;;;;;5042741;28;20592;-61
2022/08/02 06:17:07;;;;;;;;;;;21.30;56.20;;;;;;5033806;28;20045;-62
2022/08/02 06:19:39;;;;;;;3.50;3.30;;;21.30;56.70;;;;;;5035150;28;19956;-63
2022/08/02 06:22:18;;;;;;;3.58;3.28;;;21.30;56.70;;;;;;5040653;28;20482;-63
2022/08/02 06:25:05;;;;;;;6.35;2.88;;;21.30;57.00;;;;;;5042692;28;20057;-62
2022/08/02 06:27:53;;;;;;;3.80;3.40;;;21.40;56.80;;;;;;5036795;28;20053;-63
2022/08/02 06:30:21;;;;;;;3.58;3.28;;;21.50;56.80;;;;;;5041896;28;20055;-62
2022/08/02 06:32:50;;;;;;;4.55;3.50;;;21.50;57.00;;;;;;5041331;28;20498;-63
2022/08/02 06:35:18;;;;;;;3.83;3.47;;;21.50;57.00;;;;;;5033174;28;20106;-62
2022/08/02 06:37:51;;;;;;;5.47;3.85;;;21.50;57.20;;;;;;5032010;28;20094;-63
2022/08/02 06:40:39;;;;;;;3.47;3.17;;;21.50;57.00;;;;;;5034387;28;20380;-62
2022/08/02 06:43:12;;;;;;;3.58;3.28;;;21.60;57.30;;;;;;5041798;28;20569;-62
2022/08/02 06:45:39;;;;;;;6.28;3.85;;;21.60;57.20;;;;;;5039049;28;20494;-61
2022/08/02 06:48:07;;;;;;;4.97;3.47;;;21.60;57.10;;;;;;5037731;28;20405;-61
2022/08/02 06:50:40;;;;;;;3.28;3.08;;;21.60;57.30;;;;;;5038378;28;20044;-63
2022/08/02 06:53:08;;;;;;;3.92;3.60;;;21.50;57.50;;;;;;5040891;28;20049;-62
2022/08/02 06:55:36;;;;;;;4.50;3.55;;;21.50;57.80;;;;;;5034739;28;20134;-66
2022/08/02 06:58:11;;;;;;;3.40;3.10;;;21.50;58.00;;;;;;5038025;28;20048;-63
2022/08/02 07:00:38;;;;;;;3.95;3.55;;;21.50;57.90;;;;;;5038815;28;20103;-61
2022/08/02 07:03:06;;;;;;;3.55;3.15;;;21.50;58.10;;;;;;5041980;28;20162;-62
2022/08/02 07:05:33;;;;;;;3.83;3.33;;;21.50;58.20;;;;;;5036925;28;20046;-62
2022/08/02 07:08:02;;;;;;;3.60;3.28;;;21.50;58.50;;;;;;5039343;28;20123;-61
2022/08/02 07:10:29;;;;;;;3.42;3.22;;;21.60;58.40;;;;;;5037291;28;20057;-61
2022/08/02 07:12:56;;;;;;;5.18;3.28;;;21.60;58.30;;;;;;5046567;28;20041;-60
2022/08/02 07:15:25;;;;;;;3.55;3.13;;;21.50;58.30;;;;;;5040713;28;20049;-61
2022/08/02 07:17:54;;;;;;;3.55;3.30;;;21.50;58.30;;;;;;5034524;28;20462;-60
2022/08/02 07:20:21;;;;;;;3.70;3.40;;;21.50;58.20;;;;;;5044220;28;20052;-61
2022/08/02 07:22:48;;;;;;;5.22;3.35;;;21.50;58.20;;;;;;5039241;28;20076;-62
2022/08/02 07:25:15;;;;;;;3.70;3.17;;;21.50;58.40;;;;;;5035455;28;20085;-62
2022/08/02 07:27:42;;;;;;;3.03;2.65;;;21.50;58.30;;;;;;5037037;28;20045;-62
2022/08/02 07:30:10;;;;;;;3.17;2.97;;;21.50;58.20;;;;;;5041182;28;20049;-64
2022/08/02 07:32:38;;;;;;;3.05;2.85;;;21.50;58.20;;;;;;5039633;28;20045;-63
2022/08/02 07:35:06;;;;;;;3.63;3.25;;;21.50;58.30;;;;;;5037119;28;20076;-63
2022/08/02 07:37:37;;;;;;;3.13;2.83;;;21.50;58.20;;;;;;5031594;28;20402;-62
2022/08/02 07:40:25;;;;;;;2.88;2.67;;;21.50;58.10;;;;;;5035869;28;20127;-63
2022/08/02 07:42:54;;;;;;;3.30;3.00;;;21.50;58.10;;;;;;5038001;28;20056;-62
2022/08/02 07:45:30;;;;;;;3.33;2.83;;;21.50;58.30;;;;;;5030857;28;20045;-63
2022/08/02 07:47:57;;;;;;;5.40;2.80;;;21.50;58.50;;;;;;5030311;28;20103;-63
2022/08/02 07:50:27;;;;;;;3.60;3.30;;;21.50;58.20;;;;;;5034197;28;20053;-62
2022/08/02 07:52:54;;;;;;;3.17;2.92;;;21.40;58.40;;;;;;5036835;28;20401;-63
2022/08/02 07:55:24;;;;;;;4.07;3.50;;;21.40;58.60;;;;;;5036831;28;20506;-62
2022/08/02 07:58:07;;;;;;;4.13;2.88;;;21.30;58.40;;;;;;5032754;28;20394;-63
2022/08/02 08:00:39;;;;;;;4.57;3.20;;;21.30;58.70;;;;;;5033755;28;20056;-62
2022/08/02 08:03:06;;;;;;;2.83;2.63;;;21.30;59.30;;;;;;5035786;28;20053;-61
2022/08/02 08:05:34;;;;;;;5.28;3.60;;;21.20;59.40;;;;;;5038946;28;20099;-61
2022/08/02 08:08:01;;;;;;;4.03;3.47;;;21.20;59.70;;;;;;5037671;28;20049;-60
2022/08/02 08:10:28;;;;;;;6.38;3.10;;;21.20;59.90;;;;;;5031974;28;21059;-60
2022/08/02 08:12:55;;;;;;;2.95;2.70;;;21.30;59.70;;;;;;5035417;28;20049;-61
2022/08/02 08:15:22;;;;;;;3.33;3.03;;;21.30;59.70;;;;;;5038591;28;20510;-61
2022/08/02 08:17:50;;;;;;;3.00;2.80;;;21.30;59.70;;;;;;5042651;28;20053;-59
2022/08/02 08:20:17;;;;;;;3.38;3.08;;;21.40;59.70;;;;;;5043474;28;20140;-61
2022/08/02 08:22:44;;;;;;;3.22;2.92;;;21.40;59.60;;;;;;5036817;28;20132;-59
2022/08/02 08:25:12;;;;;;;3.20;2.75;;;21.40;59.50;;;;;;5040141;28;20045;-60
2022/08/02 08:27:51;;;;;;;4.15;2.95;;;21.40;59.80;;;;;;5039116;28;20045;-62
2022/08/02 08:30:20;;;;;;;3.17;2.97;;;21.40;59.50;;;;;;5035457;28;20111;-60
2022/08/02 08:32:48;;;;;;;3.65;3.28;;;21.40;59.60;;;;;;5041187;28;20076;-60
2022/08/02 08:35:16;;;;;;;2.92;2.72;;;21.50;59.50;;;;;;5039973;28;20068;-60
2022/08/02 08:37:43;;;;;;;3.20;2.75;;;21.60;59.40;;;;;;5041786;28;20099;-61
2022/08/02 08:40:11;;;;;;;3.03;2.83;;;21.60;59.30;;;;;;5040169;28;20068;-61
2022/08/02 08:42:45;;;;;;;2.92;2.72;;;21.70;59.20;;;;;;5037886;28;20052;-60
2022/08/02 08:45:12;;;;;;;3.30;3.00;;;21.60;59.00;;;;;;5022156;28;20053;-60
2022/08/02 08:47:41;;;;;;;4.35;2.70;;;21.70;59.30;;;;;;5039032;28;20107;-61
2022/08/02 08:50:13;;;;;;;3.15;2.85;;;21.70;59.20;;;;;;5041335;28;20509;-61
2022/08/02 08:52:50;;;;;;;2.92;2.72;;;21.80;59.10;;;;;;5039244;28;20045;-61
2022/08/02 08:55:25;;;;;;;3.08;2.88;;;21.80;59.30;;;;;;5033175;28;20073;-61
2022/08/02 08:57:54;;;;;;;3.20;2.90;;;21.80;59.10;;;;;;5030892;28;20191;-61
2022/08/02 09:00:21;;;;;;;3.33;3.05;;;21.80;59.30;;;;;;5032257;28;20045;-61
2022/08/02 09:02:49;;;;;;;2.90;2.70;;;21.80;59.20;;;;;;5034077;28;20503;-61
2022/08/02 09:05:17;;;;;;;3.10;2.90;;;21.80;59.00;;;;;;5034744;28;20048;-61
2022/08/02 09:07:49;;;;;;;3.00;2.80;;;21.80;59.30;;;;;;5035874;28;20055;-62
2022/08/02 09:10:40;;;;;;;2.42;2.33;;;21.90;59.20;;;;;;5035879;28;20098;-61
2022/08/02 09:13:19;;;;;;;3.00;2.80;;;21.90;59.00;;;;;;5039827;28;20414;-61
2022/08/02 09:16:07;;;;;;;3.67;3.38;;;21.90;59.10;;;;;;5033124;28;20073;-61
2022/08/02 09:18:43;;;;;;;2.58;2.38;;;21.90;59.00;;;;;;5037565;28;20053;-62
2022/08/02 09:21:13;;;;;;;3.00;2.75;;;21.90;58.80;;;;;;5037140;28;20072;-62
2022/08/02 09:23:47;;;;;;;3.70;2.72;;;22.00;58.80;;;;;;5035317;28;20146;-61
2022/08/02 09:26:19;;;;;;;3.88;2.83;;;22.00;58.50;;;;;;5044057;28;20060;-61
2022/08/02 09:28:49;;;;;;;2.70;2.60;;;22.00;58.20;;;;;;5030205;28;20044;-60
2022/08/02 09:31:19;;;;;;;3.40;3.10;;;22.00;58.30;;;;;;5038786;28;20045;-60
2022/08/02 09:33:57;;;;;;;3.55;2.83;;;22.00;58.60;;;;;;5040597;28;20497;-60
2022/08/02 09:36:40;;;;;;;2.78;2.58;;;22.00;58.20;;;;;;5034660;28;20053;-60
2022/08/02 09:39:09;;;;;;;3.13;2.83;;;22.00;58.10;;;;;;5040852;28;20053;-60
2022/08/02 09:41:44;;;;;;;2.63;2.42;;;22.00;58.00;;;;;;5028953;28;20052;-60
2022/08/02 09:44:15;;;;;;;2.72;2.53;;;22.00;58.00;;;;;;5043464;28;20076;-61
2022/08/02 09:46:45;;;;;;;3.17;2.92;;;22.00;58.00;;;;;;5037259;28;20046;-61
2022/08/02 09:49:18;;;;;;;2.75;2.42;;;22.00;57.80;;;;;;5038172;28;20057;-62
2022/08/02 09:51:50;;;;;;;3.05;2.75;;;22.00;57.70;;;;;;5032278;28;20132;-61
2022/08/02 09:54:24;;;;;;;2.13;2.03;;;22.10;57.70;;;;;;5037946;28;20439;-61
2022/08/02 09:56:56;;;;;;;2.53;2.38;;;22.10;57.60;;;;;;5039322;28;20045;-61
2022/08/02 09:59:24;;;;;;;2.75;2.55;;;22.10;57.70;;;;;;5037217;28;20056;-61
2022/08/02 10:01:52;;;;;;;3.00;2.80;;;22.00;57.80;;;;;;5044121;28;20057;-61
2022/08/02 10:04:31;;;;;;;2.70;2.50;;;22.10;57.70;;;;;;5037566;28;20063;-60
2022/08/02 10:07:20;;;;;;;2.67;2.53;;;22.10;57.80;;;;;;5042340;28;20045;-61
2022/08/02 10:09:49;;;;;;;2.72;2.45;;;22.10;57.60;;;;;;5037689;28;20046;-60
2022/08/02 10:12:17;;;;;;;4.55;2.55;;;22.10;57.50;;;;;;5037937;28;20088;-61
2022/08/02 10:14:48;;;;;;;2.42;2.22;;;22.00;57.30;;;;;;5043206;28;20565;-60
2022/08/02 10:17:17;;;;;;;2.35;2.25;;;22.10;57.20;;;;;;5039118;28;20099;-61
2022/08/02 10:19:46;;;;;;;2.40;2.30;;;22.10;56.90;;;;;;5036329;28;20060;-60
2022/08/02 10:22:32;;;;;;;2.30;2.10;;;22.00;56.90;;;;;;5036953;28;20045;-60
2022/08/02 10:25:02;;;;;;;2.33;2.22;;;22.00;57.00;;;;;;5038583;28;20473;-60
2022/08/02 10:27:31;;;;;;;2.65;2.45;;;22.00;56.90;;;;;;5038085;28;20080;-60
2022/08/02 10:30:19;;;;;;;2.30;2.10;;;22.00;56.80;;;;;;5062834;28;20083;-60
2022/08/02 10:32:47;;;;;;;2.70;2.50;;;22.00;57.00;;;;;;5042519;28;20050;-61
2022/08/02 10:35:17;;;;;;;2.50;2.38;;;22.00;56.70;;;;;;5027296;28;20198;-60
2022/08/02 10:37:57;;;;;;;2.65;2.45;;;21.90;56.60;;;;;;5038850;28;20098;-60
2022/08/02 10:40:27;;;;;;;2.55;2.45;;;21.90;56.60;;;;;;5038517;28;20051;-61
2022/08/02 10:42:59;;;;;;;2.35;2.15;;;21.90;56.70;;;;;;5050197;28;20068;-60
2022/08/02 10:45:28;;;;;;;3.13;2.70;;;21.90;56.70;;;;;;5035648;28;20167;-61
2022/08/02 10:47:59;;;;;;;2.13;2.03;;;21.90;56.50;;;;;;5026376;28;20053;-61
2022/08/02 10:50:51;;;;;;;2.45;2.35;;;21.90;56.50;;;;;;5027769;28;20603;-61
2022/08/02 10:53:30;;;;;;;2.97;2.78;;;21.90;56.60;;;;;;5042269;28;20054;-60
2022/08/02 10:56:00;;;;;;;2.53;2.33;;;21.80;56.50;;;;;;5035845;28;20045;-60
2022/08/02 10:58:32;;;;;;;2.20;2.10;;;21.80;56.70;;;;;;5034339;28;20477;-61
2022/08/02 11:01:25;;;;;;;2.42;2.33;;;21.80;56.80;;;;;;5035721;28;20052;-60
2022/08/02 11:04:04;;;;;;;2.53;2.33;;;21.70;56.60;;;;;;5034180;28;20060;-61
2022/08/02 11:07:10;;;;;;;2.50;2.30;;;21.70;56.80;;;;;;5030628;28;20059;-60
2022/08/02 11:09:38;;;;;;;2.58;2.38;;;21.70;56.90;;;;;;5033003;28;20049;-60
2022/08/02 11:12:10;;;;;;;2.58;2.38;;;21.60;56.80;;;;;;5034331;28;20187;-61
2022/08/02 11:14:40;;;;;;;2.42;2.22;;;21.60;57.10;;;;;;5036727;28;20401;-60
2022/08/02 11:17:16;;;;;;;2.50;2.38;;;21.60;57.00;;;;;;5025752;28;20066;-61
2022/08/02 11:20:14;;;;;;;2.67;2.40;;;21.70;57.10;;;;;;5037176;28;20118;-60
2022/08/02 11:22:44;;;;;;;2.72;2.53;;;21.70;57.00;;;;;;5033221;28;20053;-61
2022/08/02 11:25:31;;;;;;;3.10;2.83;;;21.70;57.20;;;;;;5039423;28;20050;-60
2022/08/02 11:28:19;;;;;;;4.10;3.00;;;21.70;57.00;;;;;;5030614;28;20053;-60
2022/08/02 11:30:57;;;;;;;2.00;1.90;;;21.60;57.30;;;;;;5039674;28;20060;-60
2022/08/02 11:33:30;;;;;;;2.30;2.20;;;21.70;57.30;;;;;;5043397;28;20049;-61
2022/08/02 11:36:03;;;;;;;2.30;2.20;;;21.60;57.10;;;;;;5049253;28;20049;-60
2022/08/02 11:38:31;;;;;;;2.50;2.30;;;21.60;57.00;;;;;;5032619;28;20157;-61
2022/08/02 11:41:02;;;;;;;3.75;2.55;;;21.60;57.00;;;;;;5030153;28;20433;-61
2022/08/02 11:43:36;;;;;;;2.75;2.45;;;21.60;56.90;;;;;;5033588;28;20083;-62
2022/08/02 11:46:10;;;;;;;2.55;2.35;;;21.60;56.90;;;;;;5030951;28;20064;-62
2022/08/02 11:48:40;;;;;;;2.72;2.53;;;21.60;56.80;;;;;;5036860;28;20099;-61
2022/08/02 11:51:13;;;;;;;2.80;2.55;;;21.50;57.10;;;;;;5038858;28;20139;-60
2022/08/02 11:53:45;;;;;;;2.17;2.08;;;21.50;57.20;;;;;;5031220;28;20043;-61
2022/08/02 11:56:14;;;;;;;2.53;2.40;;;21.50;57.30;;;;;;5036433;28;20045;-60
2022/08/02 11:59:06;;;;;;;3.55;2.70;;;21.50;57.60;;;;;;5036759;28;21052;-60
2022/08/02 12:01:37;;;;;;;2.40;2.28;;;21.50;57.50;;;;;;5037690;28;20044;-61
2022/08/02 12:04:16;;;;;;;2.25;2.03;;;21.40;57.70;;;;;;5032652;28;20055;-61
2022/08/02 12:06:46;;;;;;;2.60;2.17;;;21.50;58.00;;;;;;5044946;28;20502;-61
2022/08/02 12:09:13;;;;;;;3.30;2.78;;;21.50;58.00;;;;;;5031949;28;20049;-61
2022/08/02 12:11:49;;;;;;;2.80;2.50;;;21.50;58.30;;;;;;5037240;28;20379;-61
2022/08/02 12:14:17;;;;;;;2.50;2.30;;;21.50;58.00;;;;;;5037447;28;20514;-61
2022/08/02 12:19:33;;;;;;;2.42;2.25;;;21.50;58.00;;;;;;5029921;28;20769;-62
2022/08/02 12:22:23;;;;;;;2.88;2.30;;;21.50;58.10;;;;;;5037243;28;20056;-62
2022/08/02 12:24:56;;;;;;;2.80;2.60;;;21.50;58.40;;;;;;5039249;28;20045;-62
2022/08/02 12:27:31;;;;;;;3.55;2.45;;;21.40;58.60;;;;;;5053883;28;20481;-62
2022/08/02 12:30:09;;;;;;;3.53;2.40;;;21.40;58.90;;;;;;5034731;28;20045;-61
2022/08/02 12:32:38;;;;;;;2.38;2.28;;;21.40;58.50;;;;;;5034271;28;20053;-61
2022/08/02 12:35:10;;;;;;;4.82;2.25;;;21.40;58.70;;;;;;5039152;28;20537;-61
2022/08/02 12:37:43;;;;;;;3.50;2.70;;;21.40;58.80;;;;;;5035799;28;20132;-60
2022/08/02 12:40:30;;;;;;;3.30;2.50;;;21.40;58.80;;;;;;5033822;28;20076;-60
2022/08/02 12:43:00;;;;;;;3.08;2.13;;;21.40;58.00;;;;;;5038644;28;20048;-61
2022/08/02 12:45:31;;;;;;;6.68;2.38;;;21.40;58.30;;;;;;5031947;28;20053;-61
2022/08/02 12:48:07;;;;;;;2.75;2.55;;;21.40;58.20;;;;;;5028197;28;20061;-63
2022/08/02 12:50:36;;;;;;;5.38;2.58;;;21.40;58.50;;;;;;5032716;28;20252;-61
2022/08/02 12:53:14;;;;;;;2.60;2.30;;;21.30;58.40;;;;;;5033349;28;20059;-61
2022/08/02 12:55:56;;;;;;;3.67;2.75;;;21.30;58.60;;;;;;5030828;28;20102;-62
2022/08/02 12:58:30;;;;;;;2.45;2.25;;;21.30;59.10;;;;;;5035266;28;20095;-59
2022/08/02 13:00:59;;;;;;;3.40;2.97;;;21.30;59.60;;;;;;5035161;28;20049;-60
2022/08/02 13:03:28;;;;;;;3.42;2.20;;;21.30;59.30;;;;;;5039762;28;20046;-60
2022/08/02 13:06:17;;;;;;;3.55;2.42;;;21.30;59.50;;;;;;5039511;28;20053;-60
2022/08/02 13:09:14;;;;;;;5.90;2.83;;;21.30;59.90;;;;;;5035757;28;20751;-61
2022/08/02 13:11:42;;;;;;;2.72;2.50;;;21.30;60.30;;;;;;5036854;28;20753;-61
2022/08/02 13:14:12;;;;;;;2.70;2.50;;;21.30;60.10;;;;;;5043231;28;20053;-61
2022/08/02 13:16:42;;;;;;;2.30;2.20;;;21.30;60.20;;;;;;5038134;28;20077;-60